Time;durP1;ratioP1;P1;durP2;ratioP2;P2;SDS_P1;SDS_P2;PMS_P1;PMS_P2;Temp;Humidity;BMP_temperature;BMP_pressure;BME280_temperature;BME280_humidity;BME280_pressure;Samples;Min_cycle;Max_cycle;Signal;HPM_P1;HPM_P2
2022/05/20 00:00:34;;;;;;;;;12.60;10.20;;;;;18.62;30.26;100316.63;4914816;29;8868;-80
2022/05/20 00:03:04;;;;;;;;;5.40;5.40;;;;;18.53;30.39;100323.00;4931128;29;8907;-79
2022/05/20 00:05:36;;;;;;;;;8.80;7.80;;;;;18.50;29.99;100318.63;4951738;28;8857;-80
2022/05/20 00:08:05;;;;;;;;;10.00;9.20;;;;;18.53;29.90;100320.34;4951225;28;8869;-79
2022/05/20 00:10:35;;;;;;;;;6.40;6.40;;;;;18.62;29.85;100317.50;4948477;28;8861;-77
2022/05/20 00:13:06;;;;;;;;;6.00;6.00;;;;;18.58;29.64;100320.25;4915749;29;8895;-80
2022/05/20 00:15:35;;;;;;;;;7.40;7.40;;;;;18.61;30.04;100313.13;4950202;28;8857;-78
2022/05/20 00:18:04;;;;;;;;;9.80;9.80;;;;;18.63;29.69;100324.53;4931407;29;8847;-81
2022/05/20 00:20:33;;;;;;;;;11.40;10.80;;;;;18.64;29.98;100315.72;4931365;29;8867;-80
2022/05/20 00:23:03;;;;;;;;;8.20;8.20;;;;;18.65;29.97;100314.78;4935598;29;8896;-77
2022/05/20 00:25:47;;;;;;;;;10.20;9.20;;;;;18.57;30.10;100321.16;4916491;29;8889;-76
2022/05/20 00:28:20;;;;;;;;;6.20;5.80;;;;;18.58;29.90;100318.50;4952899;28;8834;-77
2022/05/20 00:30:52;;;;;;;;;9.40;9.40;;;;;18.61;30.40;100315.75;4967720;28;8847;-78
2022/05/20 00:33:21;;;;;;;;;10.00;9.20;;;;;18.56;30.59;100316.75;4921335;28;8928;-79
2022/05/20 00:35:50;;;;;;;;;9.40;9.40;;;;;18.47;30.62;100315.19;4968296;28;8870;-78
2022/05/20 00:38:19;;;;;;;;;4.00;4.00;;;;;18.57;30.74;100319.38;4968345;28;9648;-79
2022/05/20 00:40:50;;;;;;;;;9.60;9.60;;;;;18.61;30.32;100321.03;4951777;28;8870;-76
2022/05/20 00:43:34;;;;;;;;;5.80;5.80;;;;;18.62;30.42;100327.19;4952191;28;8851;-78
2022/05/20 00:46:06;;;;;;;;;8.20;7.00;;;;;18.64;30.36;100328.06;4936490;28;9088;-78
2022/05/20 00:48:35;;;;;;;;;7.80;7.60;;;;;18.64;30.22;100318.34;4976274;28;8862;-79
2022/05/20 00:51:08;;;;;;;;;8.20;8.20;;;;;18.67;30.04;100317.41;5009995;28;8884;-80
2022/05/20 00:53:41;;;;;;;;;7.20;6.80;;;;;18.73;29.47;100322.53;5008495;28;8874;-80
2022/05/20 00:56:14;;;;;;;;;10.00;7.00;;;;;18.69;29.60;100319.13;5009672;28;8889;-78
2022/05/20 00:58:46;;;;;;;;;7.00;7.00;;;;;18.75;30.23;100322.53;5017663;28;9632;-77
2022/05/20 01:01:14;;;;;;;;;6.60;6.60;;;;;18.71;29.82;100324.34;4982224;28;8854;-78
2022/05/20 01:03:45;;;;;;;;;9.80;9.80;;;;;18.72;30.24;100333.19;5012249;28;8877;-80
2022/05/20 01:06:14;;;;;;;;;8.60;7.40;;;;;18.78;29.86;100335.69;5008617;28;9628;-80
2022/05/20 01:08:42;;;;;;;;;12.20;12.00;;;;;18.80;30.46;100336.50;5008057;28;8908;-79
2022/05/20 01:11:11;;;;;;;;;14.60;12.40;;;;;18.84;30.95;100338.22;5007718;28;8843;-78
2022/05/20 01:13:44;;;;;;;;;8.00;8.00;;;;;18.84;30.25;100333.78;5008129;28;8931;-80
2022/05/20 01:16:16;;;;;;;;;7.40;7.00;;;;;18.85;29.97;100332.03;5007927;28;8893;-78
2022/05/20 01:18:53;;;;;;;;;8.40;8.40;;;;;18.85;29.87;100332.91;5024690;28;9095;-80
2022/05/20 01:21:21;;;;;;;;;9.40;6.40;;;;;18.72;29.91;100330.53;5003675;28;8864;-78
2022/05/20 01:23:52;;;;;;;;;10.80;9.80;;;;;18.76;30.09;100325.13;4971297;28;8887;-81
2022/05/20 01:26:21;;;;;;;;;11.00;9.20;;;;;18.69;30.81;100316.50;4972562;28;8880;-79
2022/05/20 01:28:50;;;;;;;;;5.00;5.00;;;;;18.73;30.05;100319.91;5004536;28;8861;-78
2022/05/20 01:31:19;;;;;;;;;8.20;7.60;;;;;18.78;30.00;100328.59;4988436;28;8896;-78
2022/05/20 01:33:50;;;;;;;;;6.60;6.60;;;;;18.78;30.04;100325.97;5004563;28;8996;-79
2022/05/20 01:36:21;;;;;;;;;9.80;9.00;;;;;18.83;30.33;100328.56;4955538;28;8889;-77
2022/05/20 01:38:53;;;;;;;;;11.60;11.00;;;;;18.85;30.98;100324.09;4996421;28;8850;-79
2022/05/20 01:41:35;;;;;;;;;11.60;10.40;;;;;18.86;31.18;100326.69;5002526;28;8847;-79
2022/05/20 01:44:12;;;;;;;;;10.40;10.20;;;;;18.85;31.12;100319.69;4986951;28;8905;-77
2022/05/20 01:46:43;;;;;;;;;10.40;9.60;;;;;18.80;30.44;100310.97;4987382;28;8877;-77
2022/05/20 01:49:33;;;;;;;;;10.60;10.60;;;;;18.75;30.49;100320.78;4968777;28;8884;-79
2022/05/20 01:52:12;;;;;;;;;9.80;9.80;;;;;18.62;30.79;100311.34;4969235;28;8856;-77
2022/05/20 01:54:53;;;;;;;;;9.80;9.80;;;;;18.48;31.30;100320.41;4985267;28;8876;-77
2022/05/20 01:57:30;;;;;;;;;10.20;9.80;;;;;18.41;31.45;100317.94;5001778;28;8887;-79
2022/05/20 02:00:07;;;;;;;;;6.80;5.60;;;;;18.45;30.45;100316.97;4929262;28;9688;-78
2022/05/20 02:02:41;;;;;;;;;6.00;6.00;;;;;18.42;29.71;100312.63;4992201;28;8819;-78
2022/05/20 02:05:17;;;;;;;;;6.40;6.40;;;;;18.48;29.89;100304.56;4955106;28;8960;-78
2022/05/20 02:07:52;;;;;;;;;6.60;6.60;;;;;18.58;29.52;100310.56;4950824;28;8985;-78
2022/05/20 02:10:28;;;;;;;;;7.20;7.20;;;;;18.58;29.50;100294.72;4922158;28;8881;-79
2022/05/20 02:13:01;;;;;;;;;5.80;5.80;;;;;18.56;28.98;100290.34;4995919;28;9679;-78
2022/05/20 02:15:36;;;;;;;;;5.00;5.00;;;;;18.51;28.80;100301.03;5004659;28;8874;-77
2022/05/20 02:18:09;;;;;;;;;6.00;6.00;;;;;18.53;29.31;100303.63;4989130;28;8958;-77
2022/05/20 02:20:41;;;;;;;;;6.80;6.60;;;;;18.61;28.39;100294.63;4973192;28;8884;-78
2022/05/20 02:23:17;;;;;;;;;7.80;6.60;;;;;18.64;28.62;100297.22;4990533;28;8865;-78
2022/05/20 02:25:51;;;;;;;;;5.60;5.60;;;;;18.65;28.76;100298.06;4990213;28;8868;-78
2022/05/20 02:28:24;;;;;;;;;5.00;5.00;;;;;18.67;28.60;100305.06;4990978;28;8856;-78
2022/05/20 02:30:55;;;;;;;;;4.00;4.00;;;;;18.72;28.34;100297.03;4974925;28;8853;-78
2022/05/20 02:33:27;;;;;;;;;5.00;5.00;;;;;18.70;28.28;100297.06;4975388;28;8857;-77
2022/05/20 02:36:02;;;;;;;;;7.40;6.80;;;;;18.70;28.78;100310.28;4990106;28;8880;-78
2022/05/20 02:38:31;;;;;;;;;5.80;5.80;;;;;18.70;29.10;100306.78;4990663;28;8885;-78
2022/05/20 02:41:02;;;;;;;;;8.00;8.00;;;;;18.72;29.42;100304.97;5023442;28;8848;-77
2022/05/20 02:43:30;;;;;;;;;5.60;5.60;;;;;18.67;28.42;100299.78;5010942;28;8862;-78
2022/05/20 02:45:59;;;;;;;;;5.00;5.00;;;;;18.57;28.52;100303.53;4994123;28;8866;-79
2022/05/20 02:48:28;;;;;;;;;9.20;5.00;;;;;18.56;28.97;100299.13;5015858;28;8873;-77
2022/05/20 02:50:58;;;;;;;;;7.00;5.40;;;;;18.62;30.15;100298.13;5023541;28;8870;-79
2022/05/20 02:53:27;;;;;;;;;7.00;7.00;;;;;18.58;29.95;100300.00;4974013;28;8888;-79
2022/05/20 02:55:56;;;;;;;;;7.00;7.00;;;;;18.45;29.96;100303.78;5022191;28;8866;-77
2022/05/20 03:06:46;;;;;;;;;8.00;7.20;;;;;18.36;30.77;100310.13;4950189;28;8860;-77
2022/05/20 03:09:17;;;;;;;;;10.80;10.40;;;;;18.45;31.04;100316.97;4896203;29;8899;-78
2022/05/20 03:11:46;;;;;;;;;38.25;34.50;;;;;18.45;31.66;100319.63;4896267;29;8915;-78
2022/05/20 03:14:19;;;;;;;;;22.75;21.75;;;;;18.46;32.27;100322.22;4897615;29;8907;-77
2022/05/20 03:16:49;;;;;;;;;9.00;9.00;;;;;18.47;31.36;100323.13;4882287;29;8881;-77
2022/05/20 03:19:18;;;;;;;;;11.60;11.20;;;;;18.47;31.30;100326.63;4895614;29;8896;-79
2022/05/20 03:21:46;;;;;;;;;13.00;13.00;;;;;18.48;32.01;100320.41;4864928;29;8876;-78
2022/05/20 03:24:16;;;;;;;;;10.80;10.20;;;;;18.49;31.20;100316.03;4896474;29;8866;-79
2022/05/20 03:26:44;;;;;;;;;18.40;16.00;;;;;18.50;32.69;100317.75;4865097;29;8907;-78
2022/05/20 03:29:13;;;;;;;;;34.75;31.00;;;;;18.51;33.41;100322.16;4911900;29;9046;-78
2022/05/20 03:31:44;;;;;;;;;17.20;16.60;;;;;18.54;32.48;100316.78;4912175;29;8900;-79
2022/05/20 03:34:13;;;;;;;;;16.80;14.20;;;;;18.57;32.38;100318.50;4912081;29;8865;-78
2022/05/20 03:36:42;;;;;;;;;11.20;9.00;;;;;18.59;31.79;100312.28;4895710;29;8960;-79
2022/05/20 03:39:13;;;;;;;;;12.00;11.20;;;;;18.66;32.33;100319.19;4895931;29;8868;-78
2022/05/20 03:41:43;;;;;;;;;10.60;10.40;;;;;18.67;33.33;100320.91;4949070;28;8873;-77
2022/05/20 03:44:14;;;;;;;;;9.00;8.20;;;;;18.65;31.89;100311.28;4982186;28;8925;-76
2022/05/20 03:46:46;;;;;;;;;29.50;26.00;;;;;18.66;33.07;100313.03;5009777;28;8890;-77
2022/05/20 03:49:15;;;;;;;;;80.75;73.25;;;;;18.59;32.78;100319.34;5009452;28;8921;-77
2022/05/20 03:51:45;;;;;;;;;9.60;9.60;;;;;18.58;31.35;100318.50;4997201;28;9685;-79
2022/05/20 03:54:15;;;;;;;;;6.20;6.20;;;;;18.65;30.79;100317.44;4989343;28;8857;-78
2022/05/20 03:56:43;;;;;;;;;10.80;10.40;;;;;18.71;31.81;100321.72;4973489;28;9610;-78
2022/05/20 03:59:12;;;;;;;;;9.60;8.20;;;;;18.85;31.39;100324.97;5008192;28;8882;-80
2022/05/20 04:01:59;;;;;;;;;12.60;11.80;;;;;18.94;31.07;100320.38;4994380;28;8878;-78
2022/05/20 04:04:32;;;;;;;;;9.20;9.00;;;;;19.09;31.26;100322.66;5008836;28;8862;-78
2022/05/20 04:07:03;;;;;;;;;10.00;10.00;;;;;19.12;30.56;100316.47;5008637;28;9611;-79
2022/05/20 04:09:32;;;;;;;;;51.25;41.50;;;;;19.17;31.28;100323.38;5021981;28;9022;-76
2022/05/20 04:12:03;;;;;;;;;16.80;16.40;;;;;19.19;31.37;100326.84;5011812;28;8899;-78
2022/05/20 04:14:33;;;;;;;;;12.60;12.60;;;;;19.37;31.42;100322.03;5010823;28;8923;-78
2022/05/20 04:17:08;;;;;;;;;37.00;33.00;;;;;19.46;31.47;100319.16;4994978;28;8891;-81
2022/05/20 04:19:37;;;;;;;;;80.00;71.00;;;;;19.60;30.82;100321.44;5010770;28;8884;-78
2022/05/20 04:22:09;;;;;;;;;8.40;8.40;;;;;19.73;29.40;100328.19;4978480;28;11000;-77
2022/05/20 04:24:38;;;;;;;;;9.20;7.40;;;;;19.84;28.64;100317.34;5010829;28;8873;-79
2022/05/20 04:27:13;;;;;;;;;11.80;10.20;;;;;19.84;29.23;100326.13;5009627;28;8841;-78
2022/05/20 04:29:41;;;;;;;;;9.00;9.00;;;;;19.83;29.91;100329.72;5006950;28;8869;-76
2022/05/20 04:32:12;;;;;;;;;7.60;7.60;;;;;19.86;29.51;100329.59;4988655;28;8946;-77
2022/05/20 04:34:41;;;;;;;;;13.40;13.40;;;;;19.84;30.00;100323.50;4988927;28;9704;-79
2022/05/20 04:37:09;;;;;;;;;9.60;8.60;;;;;19.90;29.91;100327.75;5021332;28;8960;-78
2022/05/20 04:39:38;;;;;;;;;10.60;10.60;;;;;19.99;29.79;100330.16;4988498;28;8881;-77
2022/05/20 04:47:40;;;;;;;;;7.80;7.20;;;;;20.42;29.09;100328.13;4970530;28;8878;-77
2022/05/20 04:50:10;;;;;;;;;8.00;8.00;;;;;20.65;29.18;100332.78;4954159;28;8988;-77
2022/05/20 04:52:39;;;;;;;;;7.60;6.60;;;;;20.87;28.74;100329.47;4969672;28;8885;-78
2022/05/20 04:55:08;;;;;;;;;10.00;9.60;;;;;20.98;28.18;100333.56;4950621;28;8862;-78
2022/05/20 04:57:41;;;;;;;;;11.60;11.60;;;;;20.99;28.66;100324.66;4986219;28;8976;-78
2022/05/20 05:00:13;;;;;;;;;13.60;13.40;;;;;20.96;28.80;100329.19;5003123;28;8850;-78
2022/05/20 05:02:43;;;;;;;;;11.60;11.60;;;;;21.00;28.39;100330.84;4953597;28;9032;-79
2022/05/20 05:05:14;;;;;;;;;12.00;12.00;;;;;21.04;28.67;100327.19;4971311;28;8865;-79
2022/05/20 05:07:45;;;;;;;;;12.80;11.40;;;;;20.96;28.76;100327.44;4955511;28;8891;-79
2022/05/20 05:10:16;;;;;;;;;15.40;13.80;;;;;21.00;29.53;100326.41;4955544;28;8927;-78
2022/05/20 05:12:45;;;;;;;;;10.20;9.40;;;;;21.17;29.47;100320.59;5003426;28;8905;-79
2022/05/20 05:15:14;;;;;;;;;9.60;9.60;;;;;21.28;29.46;100320.22;4971086;28;8867;-77
2022/05/20 05:20:32;;;;;;;;;7.60;7.60;;;;;21.36;29.66;100322.63;4985621;28;8850;-78
2022/05/20 05:23:02;;;;;;;;;9.20;9.20;;;;;21.43;29.65;100318.84;4986158;28;8862;-78
2022/05/20 05:25:33;;;;;;;;;14.80;13.60;;;;;21.60;29.61;100318.31;4986179;28;8888;-77
2022/05/20 05:28:03;;;;;;;;;10.80;10.80;;;;;21.79;28.82;100322.06;4931431;28;8878;-78
2022/05/20 05:30:32;;;;;;;;;14.80;13.40;;;;;21.94;28.67;100322.47;4934825;28;8859;-77
2022/05/20 05:33:02;;;;;;;;;10.40;9.40;;;;;22.10;28.04;100321.03;4967183;28;8889;-78
2022/05/20 05:35:32;;;;;;;;;9.40;9.40;;;;;22.20;28.22;100314.44;4950267;28;8862;-79
2022/05/20 05:38:01;;;;;;;;;8.40;8.40;;;;;22.32;28.48;100321.13;4951233;28;8870;-78
2022/05/20 05:40:32;;;;;;;;;8.20;7.40;;;;;22.35;28.08;100317.50;4967944;28;8847;-78
2022/05/20 05:43:02;;;;;;;;;10.60;9.80;;;;;22.35;28.35;100318.38;4971137;28;8838;-78
2022/05/20 05:45:33;;;;;;;;;10.40;8.00;;;;;22.43;27.98;100315.44;4992867;28;8860;-78
2022/05/20 05:48:05;;;;;;;;;12.60;12.20;;;;;22.49;28.17;100325.81;4993151;28;8888;-77
2022/05/20 05:50:37;;;;;;;;;13.20;10.80;;;;;22.67;28.46;100328.75;5009223;28;9744;-78
2022/05/20 05:53:10;;;;;;;;;15.50;15.50;;;;;22.75;28.09;100313.34;4990812;28;8958;-80
2022/05/20 05:55:41;;;;;;;;;8.60;8.60;;;;;22.84;28.19;100325.44;4974726;28;8901;-78
2022/05/20 05:58:09;;;;;;;;;11.40;10.80;;;;;22.98;28.81;100325.75;4958995;28;8887;-80
2022/05/20 06:00:39;;;;;;;;;16.60;13.40;;;;;23.00;29.02;100323.03;4928838;28;8865;-79
2022/05/20 06:03:10;;;;;;;;;11.20;11.20;;;;;23.16;28.88;100326.84;4975668;28;9010;-78
2022/05/20 06:05:38;;;;;;;;;9.20;8.80;;;;;23.18;29.18;100321.47;5007340;28;9011;-78
2022/05/20 06:08:07;;;;;;;;;9.40;9.40;;;;;23.31;28.72;100320.91;4968859;28;8893;-79
2022/05/20 06:10:36;;;;;;;;;16.20;15.80;;;;;23.44;29.00;100323.03;4970284;28;8851;-81
2022/05/20 06:13:05;;;;;;;;;11.00;11.00;;;;;23.42;29.22;100327.56;4965802;28;8903;-74
2022/05/20 06:15:34;;;;;;;;;9.00;7.60;;;;;23.37;28.73;100333.09;4919003;28;8860;-75
2022/05/20 06:18:02;;;;;;;;;8.40;8.40;;;;;23.51;28.58;100330.72;4934430;28;8865;-76
2022/05/20 06:20:33;;;;;;;;;13.60;13.00;;;;;23.46;29.29;100331.84;4951595;28;8898;-74
2022/05/20 06:23:02;;;;;;;;;6.20;6.20;;;;;23.50;28.47;100330.81;4969781;28;8917;-76
2022/05/20 06:25:31;;;;;;;;;10.00;8.40;;;;;23.70;28.02;100330.81;4927974;28;8864;-73
2022/05/20 06:28:09;;;;;;;;;8.60;8.60;;;;;23.88;28.07;100321.22;5008663;28;8905;-73
2022/05/20 06:30:38;;;;;;;;;10.20;8.40;;;;;24.32;27.97;100322.84;5008842;28;8855;-78
2022/05/20 06:33:08;;;;;;;;;6.80;6.60;;;;;24.58;26.85;100319.03;5008776;28;8842;-76
2022/05/20 06:41:11;;;;;;;;;11.60;11.00;;;;;25.32;25.65;100314.69;5000865;28;8973;-77
2022/05/20 06:43:40;;;;;;;;;9.80;9.80;;;;;25.38;23.36;100312.56;5001111;28;8881;-77
2022/05/20 06:46:10;;;;;;;;;1.80;1.40;;;;;25.47;22.53;100311.25;5007613;28;8898;-78
2022/05/20 06:48:53;;;;;;;;;5.00;5.00;;;;;25.00;20.78;100312.59;5008123;28;8858;-77
2022/05/20 06:51:26;;;;;;;;;3.00;3.00;;;;;25.17;20.75;100314.44;5008351;28;8862;-77
2022/05/20 06:53:59;;;;;;;;;5.00;5.00;;;;;25.19;20.02;100311.72;4997566;28;8911;-78
2022/05/20 06:56:30;;;;;;;;;4.40;4.40;;;;;25.26;20.82;100318.50;4990899;28;8903;-78
2022/05/20 06:59:01;;;;;;;;;5.00;5.00;;;;;25.08;20.85;100312.22;5002131;28;8975;-77
2022/05/20 07:01:30;;;;;;;;;3.00;3.00;;;;;25.24;20.00;100310.56;4990681;28;8873;-77
2022/05/20 07:03:59;;;;;;;;;9.00;6.00;;;;;25.31;20.86;100312.94;4990621;28;8864;-78
2022/05/20 07:06:30;;;;;;;;;5.00;4.40;;;;;25.44;20.45;100308.72;4999205;28;8854;-79
2022/05/20 07:08:59;;;;;;;;;6.40;6.20;;;;;25.56;20.67;100305.44;5004862;28;8878;-79
2022/05/20 07:11:27;;;;;;;;;4.00;4.00;;;;;25.80;21.08;100302.44;5009438;28;8874;-79
2022/05/20 07:13:57;;;;;;;;;4.80;4.20;;;;;25.86;20.56;100315.50;5024929;28;8960;-77
2022/05/20 07:16:27;;;;;;;;;5.40;5.40;;;;;26.08;20.36;100309.06;4976941;28;9694;-79
2022/05/20 07:18:56;;;;;;;;;6.00;5.60;;;;;26.16;20.96;100306.81;4960593;28;8885;-79
2022/05/20 07:21:26;;;;;;;;;4.00;4.00;;;;;25.80;20.21;100307.78;5008661;28;8846;-81
2022/05/20 07:23:56;;;;;;;;;6.20;6.00;;;;;25.82;19.68;100312.13;5010331;28;9643;-80
2022/05/20 07:26:25;;;;;;;;;4.40;3.40;;;;;25.85;20.55;100309.28;5024791;28;9592;-79
2022/05/20 07:28:54;;;;;;;;;5.00;5.00;;;;;25.95;20.26;100308.81;5009319;28;8858;-79
2022/05/20 07:31:24;;;;;;;;;6.40;6.40;;;;;26.09;20.16;100300.97;4993676;28;8898;-79
2022/05/20 07:33:53;;;;;;;;;5.40;4.40;;;;;26.30;20.42;100298.94;5024938;28;8893;-79
2022/05/20 07:36:23;;;;;;;;;6.80;5.80;;;;;26.15;20.46;100303.31;4992430;28;8959;-80
2022/05/20 07:38:53;;;;;;;;;3.00;3.00;;;;;26.25;20.68;100311.69;5010555;28;8858;-81
2022/05/20 07:41:23;;;;;;;;;3.00;3.00;;;;;26.39;21.37;100310.94;5008120;28;8854;-81
2022/05/20 07:43:52;;;;;;;;;4.80;4.00;;;;;26.54;21.67;100307.47;4947771;28;8882;-78
2022/05/20 07:46:21;;;;;;;;;3.40;2.80;;;;;26.66;21.60;100300.59;4958145;28;8857;-78
2022/05/20 07:48:49;;;;;;;;;5.20;5.20;;;;;26.78;21.79;100305.25;4997800;28;8882;-81
2022/05/20 07:51:23;;;;;;;;;4.80;4.80;;;;;26.72;21.11;100300.25;5010074;28;8995;-76
2022/05/20 07:53:58;;;;;;;;;8.20;6.60;;;;;26.87;20.98;100290.50;5020471;28;8870;-79
2022/05/20 07:56:32;;;;;;;;;4.00;3.00;;;;;26.93;19.06;100295.50;5019491;28;8900;-79
2022/05/20 07:59:07;;;;;;;;;5.80;4.20;;;;;26.68;17.64;100285.31;5002537;28;8872;-83
2022/05/20 08:01:39;;;;;;;;;6.20;6.00;;;;;26.71;17.65;100286.94;5010237;28;8882;-80
2022/05/20 08:07:00;;;;;;;;;4.80;4.80;;;;;26.49;16.91;100274.75;5026092;28;8858;-81
2022/05/20 08:09:30;;;;;;;;;3.00;2.60;;;;;26.42;17.60;100271.53;5004284;28;8869;-84
2022/05/20 08:12:00;;;;;;;;;8.00;7.00;;;;;26.41;17.97;100277.84;4998121;28;8924;-82
2022/05/20 08:14:29;;;;;;;;;3.20;2.00;;;;;26.13;17.76;100273.13;5007373;28;8846;-79
2022/05/20 08:16:59;;;;;;;;;5.40;4.80;;;;;25.93;18.46;100273.31;4992923;28;8916;-77
2022/05/20 08:19:27;;;;;;;;;4.20;4.20;;;;;26.17;18.31;100280.03;4992076;28;8846;-78
2022/05/20 08:21:56;;;;;;;;;9.00;9.00;;;;;26.34;18.32;100278.25;4993414;28;8880;-79
2022/05/20 08:24:26;;;;;;;;;7.00;7.00;;;;;26.46;17.48;100277.56;4990930;28;8876;-79
2022/05/20 08:26:55;;;;;;;;;4.20;4.20;;;;;26.70;17.97;100280.75;5006844;28;9033;-77
2022/05/20 08:29:25;;;;;;;;;2.60;2.60;;;;;26.82;18.37;100274.72;5008369;28;8886;-77
2022/05/20 08:31:53;;;;;;;;;2.00;2.00;;;;;27.06;16.91;100276.91;5007809;28;8862;-76
2022/05/20 08:34:22;;;;;;;;;4.00;3.40;;;;;27.04;15.49;100276.16;5005036;28;8878;-75
2022/05/20 08:36:51;;;;;;;;;7.00;6.00;;;;;27.26;16.07;100270.47;4997753;28;8870;-76
2022/05/20 08:39:20;;;;;;;;;3.00;2.60;;;;;27.42;15.96;100276.63;5008108;28;8858;-76
2022/05/20 08:41:52;;;;;;;;;2.60;2.60;;;;;27.01;15.90;100274.53;4990074;28;8943;-77
2022/05/20 08:44:24;;;;;;;;;4.00;4.00;;;;;27.05;16.61;100272.50;4971042;28;8846;-76
2022/05/20 08:47:12;;;;;;;;;3.40;3.40;;;;;27.23;15.13;100274.13;5005774;28;9645;-78
2022/05/20 08:49:42;;;;;;;;;3.60;3.40;;;;;27.27;14.96;100276.66;4989537;28;8866;-77
2022/05/20 08:52:15;;;;;;;;;3.20;3.20;;;;;27.27;14.30;100280.19;5004504;28;8969;-77
2022/05/20 08:54:43;;;;;;;;;4.00;3.40;;;;;27.42;13.86;100281.13;4984863;28;8878;-77
2022/05/20 08:57:34;;;;;;;;;4.00;4.00;;;;;27.47;13.50;100279.03;5003456;28;8875;-77
2022/05/20 09:00:06;;;;;;;;;6.40;6.00;;;;;27.49;14.94;100276.28;4972133;28;8883;-82
2022/05/20 09:02:36;;;;;;;;;4.80;4.80;;;;;27.76;15.01;100281.78;4970607;28;8984;-78
2022/05/20 09:05:19;;;;;;;;;4.80;3.80;;;;;27.92;15.25;100276.38;5001088;28;8882;-77
2022/05/20 09:07:58;;;;;;;;;2.20;2.20;;;;;28.04;13.89;100278.31;5006585;28;8892;-76
2022/05/20 09:10:37;;;;;;;;;2.00;2.00;;;;;28.11;14.50;100271.63;4974016;28;8989;-78
2022/05/20 09:13:13;;;;;;;;;2.00;2.00;;;;;28.26;14.49;100274.28;5006074;28;8905;-78
2022/05/20 09:15:44;;;;;;;;;5.00;3.20;;;;;28.34;14.86;100263.97;5005422;28;8855;-75
2022/05/20 09:18:32;;;;;;;;;5.40;5.00;;;;;28.45;15.39;100253.41;5005982;28;8978;-76
2022/05/20 09:21:00;;;;;;;;;3.60;3.60;;;;;28.58;16.65;100254.38;4995798;28;8840;-76
2022/05/20 09:23:30;;;;;;;;;4.00;4.00;;;;;28.71;15.84;100269.69;5011899;28;8891;-76
2022/05/20 09:26:05;;;;;;;;;2.40;2.40;;;;;28.68;15.55;100270.75;5011847;28;9743;-79
2022/05/20 09:28:39;;;;;;;;;1.60;1.60;;;;;28.76;15.46;100262.19;5010167;28;8875;-77
2022/05/20 09:31:21;;;;;;;;;3.60;3.60;;;;;28.85;15.24;100258.06;5006376;28;8889;-75
2022/05/20 09:33:55;;;;;;;;;5.00;5.00;;;;;28.52;15.12;100261.94;5009116;28;8861;-76
2022/05/20 09:36:35;;;;;;;;;4.00;4.00;;;;;27.76;15.87;100250.47;5011064;28;8993;-79
2022/05/20 09:39:09;;;;;;;;;4.60;4.00;;;;;27.88;15.93;100253.38;4963682;28;8919;-76
2022/05/20 09:41:45;;;;;;;;;5.60;5.60;;;;;27.86;16.74;100250.78;5009574;28;8854;-78
2022/05/20 09:44:15;;;;;;;;;4.40;4.40;;;;;28.06;16.60;100252.28;4989756;28;8959;-80
2022/05/20 09:46:51;;;;;;;;;0.80;0.80;;;;;27.96;16.87;100243.09;5008146;28;8855;-80
2022/05/20 09:49:37;;;;;;;;;5.20;5.20;;;;;28.05;16.99;100237.13;4999556;28;8856;-78
2022/05/20 09:52:19;;;;;;;;;5.00;5.00;;;;;27.58;16.63;100238.19;4999216;28;8996;-77
2022/05/20 09:54:52;;;;;;;;;5.60;4.80;;;;;27.57;17.93;100240.00;5007396;28;8964;-75
2022/05/20 09:57:24;;;;;;;;;3.00;3.00;;;;;27.73;17.04;100234.59;5004734;28;8993;-75
2022/05/20 09:59:58;;;;;;;;;3.40;3.40;;;;;27.89;16.90;100234.53;4985696;28;8862;-76
2022/05/20 10:02:32;;;;;;;;;4.00;3.60;;;;;28.05;17.11;100230.91;4994294;28;9635;-77
2022/05/20 10:05:12;;;;;;;;;4.80;4.80;;;;;28.17;17.78;100227.47;4969506;28;8869;-78
2022/05/20 10:07:56;;;;;;;;;4.80;4.80;;;;;28.28;16.89;100224.97;5006741;28;8882;-80
2022/05/20 10:10:34;;;;;;;;;6.40;5.40;;;;;28.43;16.96;100231.19;4996637;28;8858;-78
2022/05/20 10:13:08;;;;;;;;;3.20;3.20;;;;;28.45;16.58;100221.22;5002108;28;8861;-79
2022/05/20 10:15:42;;;;;;;;;5.60;5.60;;;;;28.58;17.06;100218.59;4998614;28;8862;-79
2022/05/20 10:18:26;;;;;;;;;5.00;5.00;;;;;28.64;16.49;100222.72;5007468;28;9003;-77
2022/05/20 10:21:09;;;;;;;;;5.00;5.00;;;;;28.67;16.73;100217.16;5000303;28;8864;-75
2022/05/20 10:23:45;;;;;;;;;6.00;6.00;;;;;28.52;16.81;100210.97;5001849;28;8968;-77
2022/05/20 10:26:34;;;;;;;;;4.40;3.40;;;;;28.58;16.21;100219.50;5007383;28;8858;-76
2022/05/20 10:34:46;;;;;;;;;5.00;5.00;;;;;28.49;15.61;100209.31;5001394;28;8929;-79
2022/05/20 10:37:30;;;;;;;;;4.40;4.40;;;;;28.32;15.76;100205.03;5010020;28;8858;-77
2022/05/20 10:40:33;;;;;;;;;5.20;5.20;;;;;28.55;15.62;100211.63;5000124;28;8942;-80
2022/05/20 10:43:14;;;;;;;;;3.80;3.80;;;;;28.64;15.43;100204.81;4975311;28;9670;-78
2022/05/20 10:49:08;;;;;;;;;3.20;3.20;;;;;28.56;14.91;100201.75;5004102;28;8870;-77
2022/05/20 10:52:05;;;;;;;;;5.60;4.60;;;;;28.70;15.23;100187.44;4997727;28;8866;-78
2022/05/20 10:54:51;;;;;;;;;4.40;4.40;;;;;28.93;14.42;100169.81;5010716;28;9081;-76
2022/05/20 10:57:45;;;;;;;;;5.80;5.60;;;;;29.16;12.98;100176.31;4996727;28;8870;-79
2022/05/20 11:00:19;;;;;;;;;6.00;6.00;;;;;29.39;12.87;100180.13;4919339;29;8874;-79
2022/05/20 11:03:37;;;;;;;;;6.80;6.80;;;;;29.47;12.39;100172.41;4947526;29;8882;-80
2022/05/20 11:06:25;;;;;;;;;9.00;8.00;;;;;29.54;11.91;100160.25;4928698;29;8941;-78
2022/05/20 11:09:03;;;;;;;;;6.40;5.60;;;;;29.71;11.92;100164.44;4934530;29;8870;-79
2022/05/20 11:11:50;;;;;;;;;7.20;6.60;;;;;29.78;11.03;100164.91;4921172;29;8879;-79
2022/05/20 11:14:53;;;;;;;;;4.80;4.40;;;;;29.52;11.36;100164.00;4916538;29;8898;-79
2022/05/20 11:17:46;;;;;;;;;4.00;3.80;;;;;29.64;10.94;100154.22;4947423;29;9613;-77
2022/05/20 11:20:48;;;;;;;;;6.20;6.20;;;;;29.86;10.38;100150.91;4925260;29;8885;-79
2022/05/20 11:23:56;;;;;;;;;7.20;6.60;;;;;29.70;12.05;100145.75;4879245;29;8883;-81
2022/05/20 11:26:41;;;;;;;;;11.40;10.80;;;;;30.04;11.13;100135.25;4839758;29;8901;-78
2022/05/20 11:29:37;;;;;;;;;6.00;6.00;;;;;30.06;11.03;100141.41;4840068;29;8872;-80
2022/05/20 11:32:08;;;;;;;;;6.00;5.80;;;;;30.34;11.30;100131.34;4842114;29;9005;-79
2022/05/20 11:35:17;;;;;;;;;4.00;3.80;;;;;30.14;10.91;100133.63;4839249;29;9011;-80
2022/05/20 11:38:02;;;;;;;;;3.40;3.40;;;;;30.64;12.04;100120.13;4851105;29;8887;-81
2022/05/20 11:40:40;;;;;;;;;17.25;16.75;;;;;30.96;11.63;100116.84;4876024;29;8901;-80
2022/05/20 11:43:43;;;;;;;;;4.40;4.40;;;;;31.34;11.35;100113.00;4846560;29;8887;-81
2022/05/20 11:46:28;;;;;;;;;5.00;5.00;;;;;31.29;9.87;100114.22;4855204;29;8969;-81
2022/05/20 11:49:26;;;;;;;;;3.80;3.80;;;;;31.40;9.67;100118.78;4839497;29;8885;-79
2022/05/20 11:52:12;;;;;;;;;4.00;4.00;;;;;31.71;9.49;100108.28;4800319;29;8890;-79
2022/05/20 11:54:48;;;;;;;;;3.40;3.40;;;;;31.90;8.63;100112.22;4793451;29;8901;-80
2022/05/20 11:57:26;;;;;;;;;1.80;1.80;;;;;31.94;9.54;100108.28;4799068;29;8918;-80
2022/05/20 12:00:02;;;;;;;;;7.60;7.60;;;;;30.57;9.90;100114.34;4762098;30;8890;-81
2022/05/20 12:02:40;;;;;;;;;4.00;4.00;;;;;30.23;10.44;100115.97;4745963;30;9002;-80
2022/05/20 12:05:13;;;;;;;;;8.80;7.20;;;;;30.95;11.29;100113.31;4761415;30;10315;-79
2022/05/20 12:07:42;;;;;;;;;6.00;5.20;;;;;31.73;10.86;100109.03;4745810;30;8991;-75
2022/05/20 12:10:34;;;;;;;;;2.40;2.40;;;;;31.53;9.88;100110.63;4759720;30;8898;-75
2022/05/20 12:13:13;;;;;;;;;3.60;3.60;;;;;32.24;9.48;100103.09;4763957;29;8872;-75
2022/05/20 12:15:50;;;;;;;;;3.80;3.80;;;;;32.89;9.31;100105.81;4797157;29;9031;-75
2022/05/20 12:24:15;;;;;;;;;4.20;4.00;;;;;33.35;9.16;100095.63;4871781;29;8873;-83
2022/05/20 12:26:49;;;;;;;;;2.60;2.60;;;;;33.21;8.96;100096.81;4874272;29;8861;-85
2022/05/20 12:30:00;;;;;;;;;4.60;3.80;;;;;33.59;8.70;100098.00;4917376;28;8886;-81
2022/05/20 12:32:45;;;;;;;;;6.00;6.00;;;;;32.87;9.42;100088.03;5018506;28;9016;-82
2022/05/20 12:35:20;;;;;;;;;8.20;7.60;;;;;33.76;9.15;100086.59;5009265;28;8956;-82
2022/05/20 12:38:19;;;;;;;;;4.80;3.80;;;;;33.19;9.08;100077.19;4992642;28;8963;-79
2022/05/20 12:41:00;;;;;;;;;5.75;5.75;;;;;34.04;9.52;100075.97;4998379;28;8952;-83